Time;durP1;ratioP1;P1;durP2;ratioP2;P2;SDS_P1;SDS_P2;PMS_P1;PMS_P2;Temp;Humidity;BMP_temperature;BMP_pressure;BME280_temperature;BME280_humidity;BME280_pressure;Samples;Min_cycle;Max_cycle;Signal;HPM_P1;HPM_P2
2023/07/24 00:01:09;;;;;;;18.88;7.65;;;18.20;99.90;;;;;;5026882;28;20425;-63
2023/07/24 00:03:35;;;;;;;15.75;7.75;;;18.30;99.90;;;;;;5028046;28;20480;-64
2023/07/24 00:06:02;;;;;;;15.68;7.85;;;18.20;99.90;;;;;;5027053;28;20017;-64
2023/07/24 00:08:28;;;;;;;22.92;8.20;;;18.10;99.90;;;;;;5029278;28;20033;-64
2023/07/24 00:10:53;;;;;;;24.40;8.70;;;17.90;99.90;;;;;;5029643;28;20036;-63
2023/07/24 00:13:19;;;;;;;22.05;8.90;;;17.70;99.90;;;;;;5022837;28;20415;-64
2023/07/24 00:15:45;;;;;;;18.10;8.10;;;17.70;99.90;;;;;;5023165;28;20033;-64
2023/07/24 00:18:11;;;;;;;20.23;8.80;;;17.60;99.90;;;;;;5021839;28;20049;-63
2023/07/24 00:20:36;;;;;;;18.38;8.15;;;17.60;99.90;;;;;;5021117;28;20390;-64
2023/07/24 00:23:02;;;;;;;15.13;7.93;;;17.40;99.90;;;;;;5023283;28;20137;-64
2023/07/24 00:25:27;;;;;;;20.55;8.52;;;17.30;99.90;;;;;;5027161;28;20064;-64
2023/07/24 00:27:53;;;;;;;20.63;9.18;;;17.20;99.90;;;;;;4999570;28;20343;-63
2023/07/24 00:30:19;;;;;;;19.05;8.57;;;17.10;99.90;;;;;;5021505;28;20796;-64
2023/07/24 00:32:45;;;;;;;18.88;8.00;;;17.10;99.90;;;;;;5026839;28;20036;-64
2023/07/24 00:35:10;;;;;;;19.30;7.93;;;17.10;99.90;;;;;;5018152;28;20108;-64
2023/07/24 00:37:36;;;;;;;20.85;8.13;;;17.00;99.90;;;;;;5025109;28;20124;-63
2023/07/24 00:40:02;;;;;;;17.20;8.60;;;17.00;99.90;;;;;;5020380;28;20493;-64
2023/07/24 00:42:28;;;;;;;20.27;8.70;;;17.10;99.90;;;;;;5030146;28;20026;-64
2023/07/24 00:44:54;;;;;;;20.65;9.18;;;17.10;99.90;;;;;;5014579;28;20044;-64
2023/07/24 00:47:19;;;;;;;21.92;8.98;;;17.00;99.90;;;;;;5025061;28;20037;-64
2023/07/24 00:49:46;;;;;;;21.95;9.25;;;16.90;99.90;;;;;;5027194;28;20030;-64
2023/07/24 00:52:12;;;;;;;19.95;8.68;;;16.80;99.90;;;;;;5027737;28;20493;-64
2023/07/24 00:54:38;;;;;;;19.08;8.43;;;16.80;99.90;;;;;;5006340;28;20025;-64
2023/07/24 00:57:05;;;;;;;20.45;8.90;;;16.80;99.90;;;;;;5021419;28;20175;-64
2023/07/24 00:59:31;;;;;;;17.73;8.38;;;16.90;99.90;;;;;;5028419;28;20041;-63
2023/07/24 01:01:57;;;;;;;20.30;8.43;;;17.00;99.90;;;;;;5020740;28;20030;-64
2023/07/24 01:04:23;;;;;;;19.40;8.43;;;16.90;99.90;;;;;;5026237;28;20029;-64
2023/07/24 01:06:49;;;;;;;16.52;8.32;;;17.00;99.90;;;;;;5021007;28;20030;-63
2023/07/24 01:09:15;;;;;;;18.60;8.52;;;16.90;99.90;;;;;;5026305;28;20030;-62
2023/07/24 01:12:14;;;;;;;19.23;9.18;;;16.90;99.90;;;;;;5029564;28;20488;-64
2023/07/24 01:14:49;;;;;;;18.23;8.57;;;16.80;99.90;;;;;;5024842;28;20060;-64
2023/07/24 01:17:18;;;;;;;19.80;8.68;;;16.80;99.90;;;;;;5020579;28;20049;-62
2023/07/24 01:19:51;;;;;;;18.57;8.70;;;16.80;99.90;;;;;;5028505;28;20045;-63
2023/07/24 01:22:29;;;;;;;21.65;8.98;;;16.80;99.90;;;;;;5017098;28;20022;-62
2023/07/24 01:25:11;;;;;;;16.98;8.40;;;16.80;99.90;;;;;;5027113;28;20056;-64
2023/07/24 01:27:44;;;;;;;20.35;9.13;;;16.80;99.90;;;;;;5024236;28;20105;-64
2023/07/24 01:30:10;;;;;;;17.90;8.23;;;16.70;99.90;;;;;;5020755;28;20068;-63
2023/07/24 01:32:37;;;;;;;17.58;8.32;;;16.60;99.90;;;;;;5027663;28;20117;-64
2023/07/24 01:35:03;;;;;;;25.75;8.27;;;16.60;99.90;;;;;;5025858;28;20521;-64
2023/07/24 01:37:30;;;;;;;17.52;8.35;;;16.60;99.90;;;;;;5022161;28;20113;-65
2023/07/24 01:39:57;;;;;;;18.25;8.05;;;16.60;99.90;;;;;;5018311;28;20040;-64
2023/07/24 01:42:24;;;;;;;19.55;8.43;;;16.60;99.90;;;;;;5022763;28;20040;-64
2023/07/24 01:44:54;;;;;;;17.80;8.75;;;16.50;99.90;;;;;;4996157;28;20042;-64
2023/07/24 01:47:20;;;;;;;18.67;8.45;;;16.30;99.90;;;;;;5019722;28;20037;-62
2023/07/24 01:49:46;;;;;;;19.45;8.23;;;16.20;99.90;;;;;;5020426;28;20037;-64
2023/07/24 01:52:11;;;;;;;18.85;8.55;;;16.10;99.90;;;;;;5025761;28;20520;-65
2023/07/24 01:54:37;;;;;;;18.48;8.93;;;16.20;99.90;;;;;;5023941;28;20199;-65
2023/07/24 01:57:03;;;;;;;18.35;8.15;;;16.30;99.90;;;;;;5019605;28;20234;-64
2023/07/24 01:59:28;;;;;;;21.25;8.88;;;16.30;99.90;;;;;;5023501;28;20040;-66
2023/07/24 02:01:54;;;;;;;16.23;7.82;;;16.20;99.90;;;;;;5021539;28;20037;-64
2023/07/24 02:04:22;;;;;;;18.42;8.45;;;16.10;99.90;;;;;;5013640;28;20033;-62
2023/07/24 02:06:51;;;;;;;18.70;9.32;;;16.10;99.90;;;;;;5025553;28;20386;-64
2023/07/24 02:09:20;;;;;;;17.75;8.40;;;16.00;99.90;;;;;;5025532;28;20394;-65
2023/07/24 02:11:45;;;;;;;17.23;8.27;;;16.00;99.90;;;;;;5018143;28;20030;-64
2023/07/24 02:14:13;;;;;;;17.90;8.85;;;16.10;99.90;;;;;;5021258;28;20107;-64
2023/07/24 02:16:38;;;;;;;19.02;9.13;;;16.20;99.90;;;;;;5014789;28;20604;-65
2023/07/24 02:19:05;;;;;;;18.02;8.05;;;16.30;99.90;;;;;;5019837;28;20123;-64
2023/07/24 02:21:30;;;;;;;18.02;8.00;;;16.40;99.90;;;;;;5017049;28;20061;-64
2023/07/24 02:23:56;;;;;;;18.92;8.50;;;16.50;99.90;;;;;;5023272;28;20084;-63
2023/07/24 02:26:21;;;;;;;16.83;8.60;;;16.40;99.90;;;;;;5014583;28;20034;-63
2023/07/24 02:28:47;;;;;;;18.23;8.85;;;16.30;99.90;;;;;;5027064;28;20033;-64
2023/07/24 02:31:13;;;;;;;16.38;7.90;;;16.20;99.90;;;;;;5015954;28;20056;-64
2023/07/24 02:33:38;;;;;;;19.42;9.25;;;16.20;99.90;;;;;;5007768;28;20022;-65
2023/07/24 02:36:04;;;;;;;18.08;8.63;;;16.30;99.90;;;;;;5018438;28;20032;-64
2023/07/24 02:38:30;;;;;;;19.10;9.18;;;16.30;99.90;;;;;;5025408;28;20065;-64
2023/07/24 02:40:55;;;;;;;17.15;8.43;;;16.40;99.90;;;;;;5027375;28;20030;-65
2023/07/24 02:43:21;;;;;;;19.83;8.35;;;16.40;99.90;;;;;;5009866;28;20109;-62
2023/07/24 02:45:46;;;;;;;17.35;8.20;;;16.40;99.90;;;;;;5017997;28;20029;-64
2023/07/24 02:48:12;;;;;;;20.10;9.00;;;16.40;99.90;;;;;;5010541;28;20072;-64
2023/07/24 02:50:38;;;;;;;17.27;8.57;;;16.40;99.90;;;;;;5017574;28;20124;-65
2023/07/24 02:53:04;;;;;;;17.85;8.38;;;16.40;99.90;;;;;;5022829;28;20482;-65
2023/07/24 02:55:30;;;;;;;16.98;7.85;;;16.30;99.90;;;;;;5016883;28;20057;-64
2023/07/24 02:57:55;;;;;;;18.67;8.20;;;16.20;99.90;;;;;;5015533;28;20113;-64
2023/07/24 03:00:21;;;;;;;19.08;8.15;;;16.30;99.90;;;;;;5023805;28;20025;-63
2023/07/24 03:02:47;;;;;;;16.98;8.25;;;16.40;99.90;;;;;;5015797;28;20037;-64
2023/07/24 03:05:12;;;;;;;15.13;7.57;;;16.50;99.90;;;;;;5019466;28;20025;-64
2023/07/24 03:07:38;;;;;;;17.48;8.48;;;16.50;99.90;;;;;;5016754;28;20084;-65
2023/07/24 03:10:04;;;;;;;18.02;8.52;;;16.60;99.90;;;;;;5012966;28;20041;-66
2023/07/24 03:12:29;;;;;;;17.63;8.02;;;16.60;99.90;;;;;;5022047;28;20478;-64
2023/07/24 03:14:55;;;;;;;14.75;7.78;;;16.60;99.90;;;;;;5019552;28;20111;-64
2023/07/24 03:17:22;;;;;;;19.30;8.07;;;16.40;99.90;;;;;;5020164;28;20064;-64
2023/07/24 03:19:49;;;;;;;18.95;8.30;;;16.30;99.90;;;;;;5021716;28;20041;-64
2023/07/24 03:22:15;;;;;;;17.92;8.48;;;16.40;99.90;;;;;;5021622;28;20025;-64
2023/07/24 03:24:40;;;;;;;18.17;8.57;;;16.30;99.90;;;;;;5026405;28;20048;-64
2023/07/24 03:27:06;;;;;;;18.25;8.07;;;16.30;99.90;;;;;;5023557;28;20126;-64
2023/07/24 03:29:32;;;;;;;21.13;8.07;;;16.20;99.90;;;;;;5022177;28;20497;-64
2023/07/24 03:31:58;;;;;;;19.73;8.90;;;15.90;99.90;;;;;;5031343;28;20026;-64
2023/07/24 03:34:23;;;;;;;17.25;8.35;;;15.80;99.90;;;;;;5027250;28;20057;-62
2023/07/24 03:36:49;;;;;;;16.95;7.57;;;15.80;99.90;;;;;;5023189;28;20553;-63
2023/07/24 03:39:15;;;;;;;19.02;8.93;;;15.80;99.90;;;;;;5026890;28;20041;-64
2023/07/24 03:41:42;;;;;;;21.17;8.90;;;15.70;99.90;;;;;;5028137;28;20026;-64
2023/07/24 03:44:07;;;;;;;20.80;8.48;;;15.70;99.90;;;;;;5019229;28;20045;-63
2023/07/24 03:46:33;;;;;;;14.40;7.53;;;15.90;99.90;;;;;;5014593;28;20030;-64
2023/07/24 03:48:59;;;;;;;17.50;8.38;;;16.10;99.90;;;;;;5032232;28;20041;-64
2023/07/24 03:51:24;;;;;;;21.67;8.75;;;16.30;99.90;;;;;;5030989;28;20053;-62
2023/07/24 03:53:50;;;;;;;18.02;7.63;;;16.30;99.90;;;;;;5013395;28;20108;-64
2023/07/24 03:56:16;;;;;;;17.55;8.10;;;16.40;99.90;;;;;;5029583;28;20030;-63
2023/07/24 03:58:44;;;;;;;17.88;7.75;;;16.60;99.90;;;;;;5010254;28;20385;-63
2023/07/24 04:01:10;;;;;;;16.60;8.30;;;16.70;99.90;;;;;;5015709;28;20141;-64
2023/07/24 04:03:36;;;;;;;18.15;8.23;;;16.80;99.90;;;;;;5019417;28;20112;-63
2023/07/24 04:06:02;;;;;;;16.40;7.53;;;16.90;99.90;;;;;;5024434;28;20109;-65
2023/07/24 04:08:27;;;;;;;18.08;8.52;;;16.80;99.90;;;;;;5013439;28;20045;-67
2023/07/24 04:10:55;;;;;;;18.15;8.10;;;16.40;99.90;;;;;;5018652;28;20026;-63
2023/07/24 04:13:21;;;;;;;17.05;8.13;;;16.30;99.90;;;;;;5026919;28;20029;-65
2023/07/24 04:15:47;;;;;;;17.75;7.80;;;16.20;99.90;;;;;;5020936;28;20022;-66
2023/07/24 04:18:13;;;;;;;17.88;7.82;;;16.40;99.90;;;;;;5019997;28;20130;-65
2023/07/24 04:20:38;;;;;;;18.38;8.68;;;16.70;99.90;;;;;;5028942;28;20056;-65
2023/07/24 04:23:04;;;;;;;18.15;8.07;;;16.60;99.90;;;;;;5006748;28;20402;-61
2023/07/24 04:25:29;;;;;;;22.17;8.60;;;16.70;99.90;;;;;;5028727;28;20040;-62
2023/07/24 04:27:55;;;;;;;23.75;8.30;;;16.90;99.90;;;;;;5025210;28;20030;-61
2023/07/24 04:30:21;;;;;;;18.63;8.20;;;17.10;99.90;;;;;;5021927;28;20068;-61
2023/07/24 04:32:46;;;;;;;21.63;8.27;;;17.30;99.90;;;;;;5016824;28;20630;-62
2023/07/24 04:35:12;;;;;;;16.88;7.90;;;17.50;99.90;;;;;;5025241;28;20029;-64
2023/07/24 04:37:38;;;;;;;17.02;7.88;;;17.80;99.90;;;;;;5014494;28;20371;-61
2023/07/24 04:40:04;;;;;;;19.60;8.63;;;17.90;99.90;;;;;;5011617;28;20714;-63
2023/07/24 04:42:30;;;;;;;16.05;7.07;;;18.10;99.90;;;;;;5016008;28;20034;-63
2023/07/24 04:44:56;;;;;;;16.25;7.45;;;18.30;99.90;;;;;;5018415;28;20025;-63
2023/07/24 04:47:22;;;;;;;14.50;7.20;;;18.40;99.90;;;;;;5023850;28;20039;-62
2023/07/24 04:49:47;;;;;;;16.90;7.55;;;18.50;99.90;;;;;;5028269;28;20219;-63
2023/07/24 04:52:13;;;;;;;14.10;7.10;;;18.70;99.90;;;;;;5018232;28;20030;-62
2023/07/24 04:54:39;;;;;;;17.27;7.38;;;18.90;99.90;;;;;;5019619;28;20037;-63
2023/07/24 04:57:04;;;;;;;19.65;8.43;;;19.00;99.90;;;;;;5025537;28;20104;-62
2023/07/24 04:59:30;;;;;;;18.00;8.15;;;19.00;99.90;;;;;;5009670;28;20037;-61
2023/07/24 05:01:56;;;;;;;14.65;7.75;;;19.10;99.90;;;;;;5019547;28;20041;-60
2023/07/24 05:04:21;;;;;;;17.05;8.15;;;19.00;99.90;;;;;;5005532;28;20025;-62
2023/07/24 05:06:47;;;;;;;16.33;7.43;;;19.00;99.90;;;;;;5020240;28;20026;-63
2023/07/24 05:09:14;;;;;;;16.02;7.60;;;19.00;99.90;;;;;;5009927;28;20410;-61
2023/07/24 05:11:40;;;;;;;24.48;7.20;;;19.00;99.90;;;;;;5020626;28;20030;-62
2023/07/24 05:14:05;;;;;;;14.85;7.60;;;18.70;99.90;;;;;;5020967;28;20039;-60
2023/07/24 05:16:31;;;;;;;16.20;7.93;;;18.60;99.90;;;;;;5018702;28;20493;-64
2023/07/24 05:18:57;;;;;;;17.00;8.07;;;18.60;99.90;;;;;;5028680;28;20046;-64
2023/07/24 05:21:22;;;;;;;16.70;8.45;;;18.70;99.90;;;;;;5025697;28;20546;-63
2023/07/24 05:23:48;;;;;;;19.77;8.38;;;18.60;99.90;;;;;;5016589;28;20800;-62
2023/07/24 05:26:13;;;;;;;16.25;7.63;;;18.30;99.90;;;;;;5017150;28;20108;-63
2023/07/24 05:28:39;;;;;;;14.10;7.10;;;18.30;99.90;;;;;;5014893;28;20116;-61
2023/07/24 05:31:05;;;;;;;18.48;8.07;;;18.40;99.90;;;;;;4997620;28;20088;-62
2023/07/24 05:33:31;;;;;;;14.38;7.47;;;18.40;99.90;;;;;;5023661;28;20034;-64
2023/07/24 05:36:02;;;;;;;17.25;7.85;;;18.50;99.90;;;;;;5018272;28;20115;-64
2023/07/24 05:38:28;;;;;;;17.58;7.30;;;18.60;99.90;;;;;;5019077;28;20448;-62
2023/07/24 05:41:02;;;;;;;16.15;8.00;;;18.90;99.90;;;;;;5008648;28;20041;-63
2023/07/24 05:43:29;;;;;;;15.98;7.95;;;19.00;99.90;;;;;;5008947;28;20030;-61
2023/07/24 05:45:56;;;;;;;20.67;8.52;;;19.20;99.90;;;;;;5021037;28;20041;-61
2023/07/24 05:48:22;;;;;;;23.70;8.32;;;19.50;99.90;;;;;;5021346;28;20168;-61
2023/07/24 05:50:47;;;;;;;18.90;8.18;;;19.80;99.90;;;;;;5015626;28;20049;-63
2023/07/24 05:53:14;;;;;;;16.10;8.57;;;20.00;99.90;;;;;;5016800;28;20030;-64
2023/07/24 05:55:39;;;;;;;13.95;7.57;;;20.30;99.90;;;;;;5008364;28;20065;-64
2023/07/24 05:58:05;;;;;;;17.02;8.20;;;20.40;99.90;;;;;;5008927;28;20537;-62
2023/07/24 06:00:31;;;;;;;15.15;7.88;;;20.40;99.90;;;;;;5023491;28;20484;-63
2023/07/24 06:02:56;;;;;;;20.63;8.20;;;20.50;99.90;;;;;;5011793;28;20037;-64
2023/07/24 06:05:22;;;;;;;19.77;8.55;;;20.80;99.90;;;;;;5010316;28;20402;-65
2023/07/24 06:07:48;;;;;;;18.25;8.07;;;21.10;99.90;;;;;;5023842;28;20077;-64
2023/07/24 06:10:14;;;;;;;21.95;8.00;;;21.20;99.90;;;;;;5008907;28;20030;-65
2023/07/24 06:12:39;;;;;;;18.00;8.10;;;21.30;99.90;;;;;;5011391;28;20512;-65
2023/07/24 06:15:06;;;;;;;15.43;7.85;;;21.20;99.90;;;;;;5015758;28;20522;-65
2023/07/24 06:17:32;;;;;;;20.83;8.75;;;21.20;99.90;;;;;;5015694;28;20059;-64
2023/07/24 06:19:57;;;;;;;18.73;9.07;;;21.10;99.90;;;;;;5020737;28;21444;-62
2023/07/24 06:22:23;;;;;;;16.90;7.97;;;21.00;99.90;;;;;;5009009;28;20038;-61
2023/07/24 06:24:49;;;;;;;25.08;9.05;;;21.00;99.90;;;;;;5014901;28;20029;-62
2023/07/24 06:27:15;;;;;;;21.05;9.40;;;21.00;99.90;;;;;;5015585;28;20049;-62
2023/07/24 06:29:40;;;;;;;16.20;8.77;;;20.90;99.90;;;;;;5008345;28;20040;-61
2023/07/24 06:32:07;;;;;;;19.30;9.27;;;20.90;99.90;;;;;;5013371;28;20065;-61
2023/07/24 06:34:33;;;;;;;21.13;8.68;;;20.90;99.90;;;;;;5013471;28;20033;-63
2023/07/24 06:36:59;;;;;;;21.98;9.25;;;20.90;99.90;;;;;;5018517;28;20037;-64
2023/07/24 06:39:24;;;;;;;16.70;9.02;;;20.90;99.90;;;;;;5021843;28;20392;-63
2023/07/24 06:41:54;;;;;;;20.63;9.30;;;21.00;99.90;;;;;;5021606;28;20041;-62
2023/07/24 06:44:19;;;;;;;19.55;8.38;;;21.00;99.90;;;;;;5008731;28;20484;-61
2023/07/24 06:46:45;;;;;;;17.10;9.23;;;21.00;99.90;;;;;;5018439;28;20022;-61
2023/07/24 06:49:11;;;;;;;18.35;8.98;;;21.10;99.90;;;;;;5016555;28;20041;-61
2023/07/24 06:51:38;;;;;;;22.50;9.00;;;21.10;99.90;;;;;;4990421;28;20029;-64
2023/07/24 06:54:04;;;;;;;24.13;9.48;;;21.10;99.90;;;;;;5015103;28;20488;-62
2023/07/24 06:56:30;;;;;;;25.90;9.38;;;21.10;99.90;;;;;;5020492;28;20041;-62
2023/07/24 06:58:56;;;;;;;18.08;9.63;;;21.10;99.90;;;;;;5013562;28;20048;-63
2023/07/24 07:01:21;;;;;;;19.98;9.25;;;21.10;99.90;;;;;;5008331;28;20434;-68
2023/07/24 07:03:47;;;;;;;27.42;9.68;;;21.10;99.90;;;;;;5026512;28;20029;-66
2023/07/24 07:06:13;;;;;;;20.30;9.18;;;21.10;99.90;;;;;;5029908;28;20473;-66
2023/07/24 07:08:38;;;;;;;16.48;8.65;;;21.10;99.90;;;;;;5018891;28;20034;-64
2023/07/24 07:11:04;;;;;;;18.58;8.95;;;21.10;99.90;;;;;;5025463;28;20521;-67
2023/07/24 07:13:30;;;;;;;17.92;8.98;;;21.10;99.90;;;;;;5030572;28;20036;-67
2023/07/24 07:15:55;;;;;;;18.27;8.15;;;21.10;99.90;;;;;;5027416;28;20025;-67
2023/07/24 07:18:21;;;;;;;18.70;9.30;;;21.10;99.90;;;;;;5029827;28;20053;-67
2023/07/24 07:20:48;;;;;;;18.67;9.02;;;21.00;99.90;;;;;;5029293;28;20037;-68
2023/07/24 07:23:14;;;;;;;20.60;9.35;;;21.10;99.90;;;;;;5032204;28;20037;-67
2023/07/24 07:25:40;;;;;;;20.15;9.98;;;21.10;99.90;;;;;;5019705;28;20048;-64
2023/07/24 07:28:06;;;;;;;19.25;9.13;;;21.10;99.90;;;;;;5013579;28;20037;-66
2023/07/24 07:30:31;;;;;;;20.48;9.80;;;21.10;99.90;;;;;;5019994;28;20401;-67
2023/07/24 07:32:57;;;;;;;19.02;9.10;;;21.20;99.90;;;;;;5013558;28;20041;-68
2023/07/24 07:35:23;;;;;;;23.80;9.68;;;21.20;99.90;;;;;;5029816;28;20049;-66
2023/07/24 07:37:48;;;;;;;20.98;9.45;;;21.30;99.90;;;;;;5028917;28;20042;-67
2023/07/24 07:40:14;;;;;;;23.27;8.98;;;21.30;99.90;;;;;;5017365;28;20668;-66
2023/07/24 07:42:39;;;;;;;20.35;8.73;;;21.30;99.90;;;;;;5014856;28;20049;-64
2023/07/24 07:45:05;;;;;;;20.58;9.52;;;21.30;99.90;;;;;;5019941;28;20028;-69
2023/07/24 07:47:31;;;;;;;21.17;9.27;;;21.30;99.90;;;;;;5014902;28;20041;-67
2023/07/24 07:49:57;;;;;;;20.80;9.02;;;21.30;99.90;;;;;;5015321;28;20120;-65
2023/07/24 07:52:22;;;;;;;19.48;9.55;;;21.30;99.90;;;;;;5011439;28;20045;-66
2023/07/24 07:54:49;;;;;;;20.38;9.55;;;21.30;99.90;;;;;;5015052;28;20458;-66
2023/07/24 07:57:15;;;;;;;19.27;9.77;;;21.30;99.90;;;;;;5007000;28;20463;-66
2023/07/24 07:59:41;;;;;;;18.92;9.57;;;21.30;99.90;;;;;;5024682;28;20026;-63
2023/07/24 08:02:07;;;;;;;18.38;9.30;;;21.30;99.90;;;;;;5022366;28;20067;-66
2023/07/24 08:04:32;;;;;;;17.40;9.00;;;21.40;99.90;;;;;;5001921;28;20121;-66
2023/07/24 08:06:58;;;;;;;18.75;9.38;;;21.40;99.90;;;;;;5019303;28;20368;-69
2023/07/24 08:09:24;;;;;;;20.55;9.80;;;21.50;99.90;;;;;;5014279;28;20034;-67
2023/07/24 08:11:53;;;;;;;20.55;10.23;;;21.70;99.90;;;;;;5021688;28;20041;-68
2023/07/24 08:14:19;;;;;;;27.35;9.95;;;21.80;99.90;;;;;;5025530;28;20516;-68
2023/07/24 08:16:48;;;;;;;21.95;9.63;;;21.90;99.90;;;;;;5026285;28;20052;-67
2023/07/24 08:19:13;;;;;;;19.48;9.30;;;22.10;99.90;;;;;;5026706;28;20512;-68
2023/07/24 08:21:40;;;;;;;16.80;9.70;;;22.20;99.90;;;;;;5021028;28;20061;-65
2023/07/24 08:24:06;;;;;;;25.90;9.32;;;22.30;99.90;;;;;;5035637;28;20057;-68
2023/07/24 08:26:32;;;;;;;17.83;9.27;;;22.40;99.90;;;;;;5020501;28;20060;-68
2023/07/24 08:28:58;;;;;;;21.65;9.98;;;22.50;99.90;;;;;;5027996;28;20442;-68
2023/07/24 08:31:24;;;;;;;20.38;9.88;;;22.50;99.90;;;;;;5027279;28;20037;-67
2023/07/24 08:33:50;;;;;;;17.17;8.93;;;22.60;99.90;;;;;;5025652;28;20087;-68
2023/07/24 08:36:18;;;;;;;20.75;9.40;;;22.60;99.90;;;;;;5010463;28;20471;-67
2023/07/24 08:38:44;;;;;;;20.63;9.80;;;22.70;99.90;;;;;;5027064;28;20107;-65
2023/07/24 08:41:15;;;;;;;15.90;8.70;;;22.60;99.90;;;;;;5022351;28;20470;-68
2023/07/24 08:43:42;;;;;;;18.45;9.07;;;22.60;99.90;;;;;;5024787;28;20113;-64
2023/07/24 08:46:09;;;;;;;21.73;9.57;;;22.60;99.90;;;;;;5018610;28;20112;-65
2023/07/24 08:48:37;;;;;;;18.52;8.50;;;22.60;99.90;;;;;;5024139;28;20033;-66
2023/07/24 08:51:10;;;;;;;21.27;9.13;;;22.70;99.90;;;;;;5014133;28;20652;-65
2023/07/24 08:53:38;;;;;;;18.13;8.70;;;22.70;99.90;;;;;;5023238;28;20030;-64
2023/07/24 08:56:09;;;;;;;20.30;9.57;;;22.80;99.90;;;;;;5016997;28;20113;-63
2023/07/24 08:58:35;;;;;;;19.55;8.70;;;23.00;99.90;;;;;;5015256;28;20055;-66
2023/07/24 09:01:02;;;;;;;19.88;8.88;;;23.30;99.90;;;;;;5006149;28;20168;-65
2023/07/24 09:03:31;;;;;;;18.50;9.15;;;23.20;99.90;;;;;;5013020;28;20034;-67
2023/07/24 09:05:58;;;;;;;18.60;9.38;;;22.90;99.90;;;;;;5022986;28;20101;-69
2023/07/24 09:08:33;;;;;;;21.48;9.38;;;22.70;99.90;;;;;;5022578;28;20029;-66
2023/07/24 09:11:00;;;;;;;17.83;8.60;;;22.60;99.90;;;;;;5017971;28;20113;-67
2023/07/24 09:13:26;;;;;;;19.30;9.45;;;22.60;99.90;;;;;;5021020;28;20053;-63
2023/07/24 09:15:53;;;;;;;19.98;8.50;;;22.80;99.90;;;;;;5018586;28;20044;-64
2023/07/24 09:18:19;;;;;;;16.48;8.52;;;23.00;99.90;;;;;;4982267;28;1247281;-69
2023/07/24 09:20:45;;;;;;;16.88;8.73;;;23.10;99.90;;;;;;5020650;28;20112;-64
2023/07/24 09:23:12;;;;;;;18.60;8.70;;;23.30;99.90;;;;;;5027763;28;20120;-64
2023/07/24 09:25:40;;;;;;;15.50;8.43;;;23.30;99.90;;;;;;5018111;28;20029;-63
2023/07/24 09:28:14;;;;;;;19.80;8.90;;;23.10;99.90;;;;;;5022780;28;20056;-67
2023/07/24 09:30:40;;;;;;;14.38;7.65;;;22.80;99.90;;;;;;5020409;28;20030;-65
2023/07/24 09:33:07;;;;;;;15.85;7.57;;;22.60;99.90;;;;;;5013678;28;20040;-64
2023/07/24 09:35:37;;;;;;;22.30;8.15;;;22.10;99.90;;;;;;5023674;28;20072;-67
2023/07/24 09:38:11;;;;;;;15.32;7.47;;;21.90;99.90;;;;;;5012378;28;20044;-66
2023/07/24 09:40:45;;;;;;;16.15;7.88;;;21.60;99.90;;;;;;5023315;28;20518;-67
2023/07/24 09:43:22;;;;;;;20.13;8.20;;;21.30;99.90;;;;;;5028268;28;20060;-66
2023/07/24 09:45:49;;;;;;;14.82;7.65;;;21.30;99.90;;;;;;5023483;28;20113;-65
2023/07/24 09:48:16;;;;;;;17.70;7.63;;;21.20;99.90;;;;;;5018269;28;20033;-68
2023/07/24 09:50:45;;;;;;;17.67;7.88;;;21.20;99.90;;;;;;5026519;28;20382;-68
2023/07/24 09:53:48;;;;;;;15.70;8.20;;;21.30;99.90;;;;;;5027883;28;20425;-66
2023/07/24 09:56:16;;;;;;;20.02;7.75;;;21.50;99.90;;;;;;5016610;28;20041;-65
2023/07/24 09:58:44;;;;;;;16.40;7.60;;;21.80;99.90;;;;;;5024890;28;20045;-66
2023/07/24 10:01:10;;;;;;;14.05;7.22;;;22.10;99.90;;;;;;5024592;28;20029;-66
2023/07/24 10:03:45;;;;;;;13.68;6.68;;;22.30;99.90;;;;;;5027983;28;20034;-65
2023/07/24 10:06:17;;;;;;;15.95;6.50;;;22.50;99.90;;;;;;5022965;28;20037;-66
2023/07/24 10:08:44;;;;;;;13.38;7.40;;;22.50;99.90;;;;;;5021915;28;20037;-64
2023/07/24 10:11:11;;;;;;;13.60;7.03;;;22.40;99.90;;;;;;5021787;28;20527;-66
2023/07/24 10:13:38;;;;;;;14.52;7.03;;;22.40;99.90;;;;;;5025343;28;20488;-67
2023/07/24 10:16:06;;;;;;;14.93;7.22;;;22.30;99.90;;;;;;5014841;28;20085;-66
2023/07/24 10:18:34;;;;;;;15.38;7.22;;;22.20;99.90;;;;;;5019018;28;20061;-66
2023/07/24 10:21:10;;;;;;;14.30;6.65;;;22.10;99.90;;;;;;5023876;28;20088;-66
2023/07/24 10:23:37;;;;;;;14.68;6.90;;;22.00;99.90;;;;;;5013410;28;20038;-66
2023/07/24 10:26:06;;;;;;;12.90;7.13;;;21.90;99.90;;;;;;5025729;28;20084;-67
2023/07/24 10:28:40;;;;;;;14.50;7.10;;;21.70;99.90;;;;;;5025545;28;20037;-66
2023/07/24 10:31:30;;;;;;;15.77;7.22;;;21.60;99.90;;;;;;5019760;28;20458;-69
2023/07/24 10:34:04;;;;;;;13.88;6.82;;;21.40;99.90;;;;;;5015379;28;20100;-70
2023/07/24 10:36:34;;;;;;;15.20;7.78;;;21.30;99.90;;;;;;5021863;28;20057;-68
2023/07/24 10:39:13;;;;;;;14.88;7.65;;;21.20;99.90;;;;;;5026155;28;20417;-68
2023/07/24 10:41:39;;;;;;;17.85;7.70;;;21.20;99.90;;;;;;5021886;28;20054;-66
2023/07/24 10:44:05;;;;;;;14.27;7.60;;;21.10;99.90;;;;;;5020034;28;20056;-71
2023/07/24 10:46:39;;;;;;;15.55;7.53;;;21.10;99.90;;;;;;5009818;28;20591;-69
2023/07/24 10:49:05;;;;;;;15.68;7.68;;;21.00;99.90;;;;;;5025341;28;20037;-67
2023/07/24 10:51:37;;;;;;;13.65;7.57;;;20.90;99.90;;;;;;5024490;28;20489;-68
2023/07/24 10:54:04;;;;;;;15.30;7.65;;;20.90;99.90;;;;;;5026815;28;20021;-67
2023/07/24 10:56:30;;;;;;;13.63;7.07;;;20.70;99.90;;;;;;5014249;28;20491;-69
2023/07/24 10:58:56;;;;;;;15.25;7.93;;;20.60;99.90;;;;;;5024277;28;20021;-69
2023/07/24 11:01:23;;;;;;;17.02;7.57;;;20.50;99.90;;;;;;5027738;28;20040;-69
2023/07/24 11:03:50;;;;;;;19.63;8.48;;;20.30;99.90;;;;;;5020610;28;20030;-64
2023/07/24 11:06:17;;;;;;;20.75;8.98;;;20.10;99.90;;;;;;5016746;28;20022;-66
2023/07/24 11:08:58;;;;;;;16.30;9.10;;;19.90;99.90;;;;;;5021710;28;20129;-66
2023/07/24 11:11:33;;;;;;;18.23;8.80;;;19.60;99.90;;;;;;5025761;28;20029;-65
2023/07/24 11:14:01;;;;;;;16.27;7.65;;;19.50;99.90;;;;;;5023499;28;20083;-65
2023/07/24 11:16:30;;;;;;;16.00;8.20;;;19.40;99.90;;;;;;5015572;28;20087;-66
2023/07/24 11:18:55;;;;;;;17.30;8.13;;;19.20;99.90;;;;;;5006677;28;20089;-64
2023/07/24 11:21:23;;;;;;;16.15;7.88;;;19.10;99.90;;;;;;5006811;28;20061;-68
2023/07/24 11:23:54;;;;;;;14.88;8.15;;;19.00;99.90;;;;;;5028307;28;20037;-67
2023/07/24 11:26:20;;;;;;;;;;;19.00;99.90;;;;;;5025591;28;20478;-67
2023/07/24 11:28:46;;;;;;;24.05;7.38;;;18.90;99.90;;;;;;5022485;28;19913;-66
2023/07/24 11:31:12;;;;;;;16.33;7.82;;;18.80;99.90;;;;;;5018154;28;20056;-67
2023/07/24 11:33:39;;;;;;;14.57;7.03;;;18.70;99.90;;;;;;5020229;28;20045;-67
2023/07/24 11:36:05;;;;;;;13.98;7.13;;;18.70;99.90;;;;;;5022456;28;20553;-68
2023/07/24 11:38:31;;;;;;;17.17;7.00;;;18.70;99.90;;;;;;5014581;28;20061;-65
2023/07/24 11:40:56;;;;;;;14.60;7.75;;;18.70;99.90;;;;;;5015450;28;20033;-66
2023/07/24 11:43:27;;;;;;;16.73;7.75;;;18.70;99.90;;;;;;5026413;28;20124;-70
2023/07/24 11:45:53;;;;;;;14.35;7.55;;;18.70;99.90;;;;;;5028522;28;20033;-65
2023/07/24 11:48:20;;;;;;;16.30;7.50;;;18.60;99.90;;;;;;5021392;28;20033;-68
2023/07/24 11:50:54;;;;;;;14.32;7.53;;;18.60;99.90;;;;;;5026195;28;20053;-69
2023/07/24 11:53:27;;;;;;;17.50;7.97;;;18.60;99.90;;;;;;5014155;28;20075;-67
2023/07/24 11:55:55;;;;;;;16.23;8.20;;;18.60;99.90;;;;;;5010914;28;20120;-65
2023/07/24 11:58:25;;;;;;;19.70;9.15;;;18.50;99.90;;;;;;5005020;28;20044;-70
2023/07/24 12:00:51;;;;;;;20.65;9.55;;;18.70;99.90;;;;;;5016590;28;20557;-68
2023/07/24 12:03:28;;;;;;;19.15;9.68;;;18.80;99.90;;;;;;5017437;28;20022;-67
2023/07/24 12:05:54;;;;;;;18.35;9.23;;;18.90;99.90;;;;;;5015247;28;20050;-67
2023/07/24 12:08:33;;;;;;;21.42;9.80;;;19.00;99.90;;;;;;5021526;28;20061;-67
2023/07/24 12:10:59;;;;;;;19.93;9.73;;;19.00;99.90;;;;;;5017284;28;20030;-69
2023/07/24 12:13:25;;;;;;;21.50;10.20;;;19.10;99.90;;;;;;5018564;28;20034;-67
2023/07/24 12:15:51;;;;;;;21.35;9.38;;;19.20;99.90;;;;;;5017553;28;20068;-69
2023/07/24 12:18:17;;;;;;;19.25;9.50;;;19.50;99.90;;;;;;5014522;28;20852;-67
2023/07/24 12:20:42;;;;;;;17.35;9.55;;;20.00;99.90;;;;;;5019353;28;20048;-67
2023/07/24 12:23:08;;;;;;;17.98;9.75;;;20.20;99.90;;;;;;5014587;28;20385;-64
2023/07/24 12:25:34;;;;;;;19.83;9.73;;;20.60;99.90;;;;;;5021791;28;20030;-66
2023/07/24 12:27:59;;;;;;;16.05;8.60;;;20.90;99.90;;;;;;5025555;28;20124;-67
2023/07/24 12:30:25;;;;;;;16.98;9.23;;;21.10;99.90;;;;;;5016749;28;20030;-69
2023/07/24 12:32:51;;;;;;;21.98;9.43;;;21.20;99.90;;;;;;5015291;28;20117;-67
2023/07/24 12:35:20;;;;;;;19.35;8.85;;;21.00;99.90;;;;;;5016377;28;20076;-71
2023/07/24 12:37:46;;;;;;;18.75;8.70;;;20.90;99.90;;;;;;5015800;28;20132;-67